Time;durP1;ratioP1;P1;durP2;ratioP2;P2;SDS_P1;SDS_P2;PMS_P1;PMS_P2;Temp;Humidity;BMP_temperature;BMP_pressure;BME280_temperature;BME280_humidity;BME280_pressure;Samples;Min_cycle;Max_cycle;Signal;HPM_P1;HPM_P2
2022/09/08 00:00:59;;;;;;;2.28;2.05;;;;;;;22.23;70.52;95152.44;4937200;29;20702;-83
2022/09/08 00:03:28;;;;;;;2.95;1.67;;;;;;;22.23;70.66;95146.41;4936624;29;20205;-83
2022/09/08 00:06:01;;;;;;;3.03;1.80;;;;;;;22.21;70.71;95140.63;4930937;28;20236;-83
2022/09/08 00:08:30;;;;;;;2.55;1.60;;;;;;;22.26;70.14;95148.50;4937267;29;20285;-81
2022/09/08 00:11:02;;;;;;;2.20;1.60;;;;;;;22.26;70.66;95140.63;4930828;29;20221;-82
2022/09/08 00:13:31;;;;;;;3.20;1.73;;;;;;;22.15;71.28;95142.44;4937113;29;20288;-82
2022/09/08 00:15:58;;;;;;;1.83;1.70;;;;;;;22.15;71.24;95146.91;4931512;28;20587;-82
2022/09/08 00:18:25;;;;;;;3.45;1.92;;;;;;;22.11;71.68;95154.53;4936819;29;20193;-82
2022/09/08 00:20:51;;;;;;;3.65;1.60;;;;;;;22.08;71.29;95162.09;4936341;29;20218;-84
2022/09/08 00:23:18;;;;;;;4.85;1.80;;;;;;;22.02;71.65;95153.44;4937181;29;20197;-82
2022/09/08 00:25:44;;;;;;;2.70;2.00;;;;;;;21.92;72.52;95156.00;4931154;28;20657;-83
2022/09/08 00:28:14;;;;;;;3.47;2.33;;;;;;;21.77;73.48;95161.19;4937034;29;20229;-83
2022/09/08 00:30:40;;;;;;;3.47;2.15;;;;;;;21.84;72.39;95159.91;4935481;29;20292;-83
2022/09/08 00:33:07;;;;;;;4.45;2.00;;;;;;;21.72;73.69;95151.50;4936201;29;20190;-83
2022/09/08 00:35:34;;;;;;;2.10;1.90;;;;;;;21.80;73.57;95155.44;4936479;28;20670;-83
2022/09/08 00:38:00;;;;;;;3.38;1.90;;;;;;;21.72;73.83;95161.97;4936907;29;20249;-83
2022/09/08 00:40:29;;;;;;;3.08;2.03;;;;;;;21.68;73.90;95168.75;4936283;29;20226;-83
2022/09/08 00:43:00;;;;;;;3.95;2.00;;;;;;;21.65;74.01;95164.03;4931021;29;20241;-83
2022/09/08 00:45:33;;;;;;;4.88;2.17;;;;;;;21.55;74.20;95161.38;4936231;28;20656;-82
2022/09/08 00:48:02;;;;;;;3.35;2.10;;;;;;;21.54;74.28;95154.56;4931211;29;20245;-83
2022/09/08 00:50:29;;;;;;;2.78;2.28;;;;;;;21.59;73.98;95157.97;4935985;29;20803;-83
2022/09/08 00:53:00;;;;;;;2.22;2.03;;;;;;;21.62;74.16;95148.81;4930185;29;20197;-83
2022/09/08 00:55:27;;;;;;;3.22;2.13;;;;;;;21.60;74.17;95156.94;4936069;28;20229;-83
2022/09/08 00:57:54;;;;;;;3.95;2.00;;;;;;;21.56;74.33;95158.47;4935930;29;20218;-82
2022/09/08 01:00:21;;;;;;;3.53;1.88;;;;;;;21.38;74.75;95146.59;4935049;29;20221;-83
2022/09/08 01:02:49;;;;;;;5.32;2.55;;;;;;;21.41;74.94;95160.22;4935520;29;20197;-83
2022/09/08 01:05:19;;;;;;;3.63;1.98;;;;;;;21.52;74.07;95164.50;4936115;28;20257;-82
2022/09/08 01:13:35;;;;;;;2.05;1.92;;;;;;;21.39;74.88;95150.00;4937405;29;20848;-82
2022/09/08 01:16:03;;;;;;;1.92;1.70;;;;;;;21.31;75.31;95140.81;4940143;28;20260;-82
2022/09/08 01:18:30;;;;;;;2.90;1.90;;;;;;;21.32;74.80;95147.63;4939941;29;20292;-83
2022/09/08 01:21:04;;;;;;;3.92;2.20;;;;;;;21.33;75.98;95137.94;4939269;29;20225;-83
2022/09/08 01:24:01;;;;;;;1.90;1.70;;;;;;;21.33;75.70;95130.09;4939926;29;20201;-83
2022/09/08 01:26:49;;;;;;;2.50;1.90;;;;;;;21.42;76.01;95139.03;4914275;29;20277;-81
2022/09/08 01:29:20;;;;;;;3.40;2.00;;;;;;;21.47;75.84;95141.69;4935373;29;20713;-82
2022/09/08 01:31:50;;;;;;;2.55;1.83;;;;;;;21.42;75.77;95140.84;4938274;29;20197;-83
2022/09/08 01:34:16;;;;;;;2.10;1.90;;;;;;;21.37;75.97;95150.25;4940254;29;20579;-83
2022/09/08 01:36:43;;;;;;;2.95;1.83;;;;;;;21.34;76.00;95169.13;4938576;28;20233;-82
2022/09/08 01:39:09;;;;;;;2.97;2.05;;;;;;;21.25;76.75;95178.50;4939072;29;20221;-83
2022/09/08 01:41:36;;;;;;;2.60;2.00;;;;;;;21.26;76.76;95171.41;4938871;29;20205;-81
2022/09/08 01:44:02;;;;;;;2.17;1.80;;;;;;;21.20;76.88;95180.28;4939010;29;20710;-82
2022/09/08 01:46:30;;;;;;;2.78;1.85;;;;;;;21.11;76.61;95174.72;4938557;28;20233;-82
2022/09/08 01:48:57;;;;;;;1.92;1.67;;;;;;;21.09;77.01;95174.16;4939427;29;20218;-83
2022/09/08 01:51:24;;;;;;;2.10;1.60;;;;;;;21.11;77.11;95176.53;4939014;29;20226;-83
2022/09/08 01:53:50;;;;;;;1.88;1.60;;;;;;;21.16;76.22;95166.09;4938457;29;20666;-83
2022/09/08 01:56:16;;;;;;;4.47;1.52;;;;;;;21.17;75.98;95170.28;4938815;28;20280;-83
2022/09/08 01:58:43;;;;;;;1.90;1.40;;;;;;;21.18;75.91;95175.25;4938395;29;20194;-83
2022/09/08 02:01:09;;;;;;;1.67;1.42;;;;;;;21.19;75.63;95181.28;4938021;29;20217;-83
2022/09/08 02:03:37;;;;;;;2.25;1.52;;;;;;;21.20;74.78;95182.91;4938193;29;20233;-83
2022/09/08 02:06:04;;;;;;;2.08;1.40;;;;;;;21.23;75.19;95182.41;4938393;28;20856;-83
2022/09/08 02:08:31;;;;;;;2.17;1.45;;;;;;;21.19;75.37;95176.84;4938346;29;20284;-83
2022/09/08 02:11:00;;;;;;;2.33;1.50;;;;;;;21.08;74.27;95169.19;4937884;29;20709;-83
2022/09/08 02:13:27;;;;;;;1.90;1.20;;;;;;;20.97;74.86;95171.72;4938376;29;20776;-82
2022/09/08 02:15:59;;;;;;;1.30;1.20;;;;;;;21.01;74.85;95166.78;4937752;28;20229;-83
2022/09/08 02:18:26;;;;;;;1.35;1.25;;;;;;;20.95;74.70;95165.19;4937895;29;20265;-83
2022/09/08 02:21:02;;;;;;;1.77;1.23;;;;;;;20.97;74.74;95156.00;4936462;29;20255;-83
2022/09/08 02:23:29;;;;;;;1.77;1.50;;;;;;;20.99;74.89;95163.63;4937967;29;20225;-82
2022/09/08 02:25:55;;;;;;;1.42;1.30;;;;;;;20.99;74.12;95164.41;4936819;28;20225;-83
2022/09/08 02:28:21;;;;;;;1.40;1.30;;;;;;;21.00;73.92;95173.06;4938334;29;20308;-83
2022/09/08 02:30:48;;;;;;;2.00;1.30;;;;;;;20.98;73.82;95162.03;4937361;29;20213;-83
2022/09/08 02:33:15;;;;;;;1.77;1.20;;;;;;;21.04;73.55;95161.84;4937905;29;20245;-83
2022/09/08 02:35:42;;;;;;;1.60;1.48;;;;;;;20.99;73.44;95151.31;4938022;28;20284;-83
2022/09/08 02:38:09;;;;;;;2.20;1.45;;;;;;;20.90;74.04;95159.91;4937841;29;20202;-83
2022/09/08 02:40:36;;;;;;;2.70;1.30;;;;;;;20.85;74.14;95154.63;4937850;29;20218;-83
2022/09/08 02:43:03;;;;;;;2.50;1.40;;;;;;;20.89;74.08;95155.72;4932011;29;20198;-83
2022/09/08 02:45:29;;;;;;;4.35;1.38;;;;;;;20.89;73.56;95148.66;4937855;28;20259;-83
2022/09/08 02:47:55;;;;;;;1.50;1.20;;;;;;;20.92;73.16;95147.38;4938422;29;20201;-83
2022/09/08 02:50:22;;;;;;;1.88;1.00;;;;;;;20.86;73.79;95132.66;4937229;29;20225;-83
2022/09/08 02:52:48;;;;;;;1.30;1.00;;;;;;;20.87;74.24;95129.78;4936992;29;20205;-83
2022/09/08 02:55:16;;;;;;;1.52;1.00;;;;;;;20.92;73.53;95114.13;4937006;28;20265;-83
2022/09/08 02:57:43;;;;;;;1.98;1.20;;;;;;;20.96;73.16;95117.81;4937124;29;20225;-83
2022/09/08 03:00:10;;;;;;;1.85;1.30;;;;;;;20.95;73.56;95102.38;4936683;29;20209;-83
2022/09/08 03:02:37;;;;;;;2.08;1.30;;;;;;;20.97;73.12;95108.91;4937173;29;20240;-83
2022/09/08 03:05:03;;;;;;;1.90;1.30;;;;;;;20.97;73.01;95106.28;4936896;28;20374;-83
2022/09/08 03:07:30;;;;;;;1.38;1.00;;;;;;;20.84;73.88;95113.78;4937248;29;20201;-83
2022/09/08 03:09:56;;;;;;;1.52;1.23;;;;;;;20.87;73.86;95115.91;4936935;29;20636;-83
2022/09/08 03:12:26;;;;;;;1.92;1.25;;;;;;;20.88;74.26;95110.44;4937082;29;20210;-83
2022/09/08 03:14:53;;;;;;;2.38;1.20;;;;;;;20.97;73.80;95103.66;4936063;28;20249;-83
2022/09/08 03:17:20;;;;;;;3.00;1.48;;;;;;;20.91;74.20;95103.91;4937124;29;20584;-83
2022/09/08 03:19:47;;;;;;;2.00;1.30;;;;;;;20.92;74.25;95101.03;4935883;29;20857;-82
2022/09/08 03:22:13;;;;;;;2.88;1.20;;;;;;;20.93;74.03;95096.59;4936770;29;20224;-83
2022/09/08 03:24:42;;;;;;;1.20;1.10;;;;;;;20.96;74.07;95093.47;4935974;28;20260;-82
2022/09/08 03:27:09;;;;;;;1.35;1.20;;;;;;;20.83;74.82;95084.22;4931819;29;20225;-82
2022/09/08 03:29:37;;;;;;;1.23;1.13;;;;;;;20.88;74.41;95086.88;4936395;29;20292;-81
2022/09/08 03:32:03;;;;;;;1.40;1.30;;;;;;;20.95;73.97;95077.00;4936232;29;20198;-83
2022/09/08 03:34:30;;;;;;;1.30;1.20;;;;;;;20.99;73.42;95079.84;4935537;28;20897;-82
2022/09/08 03:36:57;;;;;;;1.42;1.17;;;;;;;21.03;73.22;95071.25;4936368;29;20198;-82
2022/09/08 03:39:23;;;;;;;1.02;0.93;;;;;;;21.00;73.44;95068.34;4936560;29;20222;-82
2022/09/08 03:41:50;;;;;;;1.70;1.02;;;;;;;20.96;73.83;95075.94;4936053;29;20206;-82
2022/09/08 03:44:16;;;;;;;1.48;1.15;;;;;;;20.93;73.42;95071.22;4936755;29;20695;-83
2022/09/08 03:46:44;;;;;;;2.33;1.35;;;;;;;20.93;73.53;95067.81;4935450;28;20280;-81
2022/09/08 03:49:12;;;;;;;1.10;1.10;;;;;;;20.86;74.15;95064.63;4936182;29;20256;-82
2022/09/08 03:51:38;;;;;;;1.50;1.30;;;;;;;20.87;74.49;95061.75;4935885;29;20201;-82
2022/09/08 03:56:45;;;;;;;1.52;1.20;;;;;;;20.93;73.03;95042.41;4923778;29;20236;-81
2022/09/08 03:59:12;;;;;;;3.78;1.40;;;;;;;20.92;72.91;95042.66;4936721;29;20229;-82
2022/09/08 04:01:39;;;;;;;1.90;1.52;;;;;;;20.91;73.52;95060.22;4935865;29;20205;-84
2022/09/08 04:04:07;;;;;;;1.92;1.20;;;;;;;20.86;74.05;95051.53;4935001;29;20856;-84
2022/09/08 04:06:34;;;;;;;1.95;1.30;;;;;;;20.82;73.97;95056.47;4934019;28;20229;-84
2022/09/08 04:09:00;;;;;;;1.55;1.40;;;;;;;20.79;74.28;95069.28;4933993;29;20221;-83
2022/09/08 04:11:27;;;;;;;1.95;1.20;;;;;;;20.81;73.88;95075.84;4933810;29;20630;-84
2022/09/08 04:13:53;;;;;;;2.42;1.33;;;;;;;20.82;74.20;95076.63;4933645;29;20202;-84
2022/09/08 04:16:20;;;;;;;2.67;1.30;;;;;;;20.82;73.60;95076.63;4934400;28;20297;-84
2022/09/08 04:18:46;;;;;;;1.33;1.20;;;;;;;20.81;73.92;95075.03;4934270;29;20201;-84
2022/09/08 04:21:14;;;;;;;2.22;1.30;;;;;;;20.81;73.90;95070.59;4933540;29;20237;-84
2022/09/08 04:23:41;;;;;;;1.25;1.15;;;;;;;20.73;74.54;95081.56;4935013;29;20205;-84
2022/09/08 04:26:12;;;;;;;1.25;1.10;;;;;;;20.75;74.37;95082.09;4933720;28;20247;-84
2022/09/08 04:28:39;;;;;;;2.38;1.30;;;;;;;20.72;74.58;95093.06;4933054;29;20688;-84
2022/09/08 04:31:07;;;;;;;2.90;1.05;;;;;;;20.65;74.28;95092.47;4932668;29;20313;-85
2022/09/08 04:33:35;;;;;;;0.90;0.90;;;;;;;20.64;74.14;95099.53;4934413;29;20202;-84
2022/09/08 04:36:06;;;;;;;1.75;1.05;;;;;;;20.60;74.03;95100.28;4932280;28;20308;-84
2022/09/08 04:38:34;;;;;;;0.95;0.93;;;;;;;20.56;74.32;95104.47;4933114;29;20202;-84
2022/09/08 04:41:04;;;;;;;1.38;1.05;;;;;;;20.49;74.44;95103.88;4931746;29;20218;-84
2022/09/08 04:43:31;;;;;;;2.22;1.08;;;;;;;20.48;74.13;95097.06;4934482;29;20213;-84
2022/09/08 04:46:01;;;;;;;1.20;0.90;;;;;;;20.49;74.14;95102.03;4933079;28;20237;-84
2022/09/08 04:48:29;;;;;;;1.10;1.00;;;;;;;20.51;73.88;95113.06;4933279;29;20214;-84
2022/09/08 04:50:55;;;;;;;0.80;0.80;;;;;;;20.49;74.15;95122.19;4932821;29;20244;-83
2022/09/08 04:53:22;;;;;;;1.67;1.00;;;;;;;20.43;74.12;95129.19;4933075;29;20252;-84
2022/09/08 04:55:50;;;;;;;1.48;0.95;;;;;;;20.42;74.68;95137.28;4932360;28;20240;-83
2022/09/08 04:58:16;;;;;;;1.80;1.00;;;;;;;20.40;74.92;95142.00;4933289;29;20277;-84
2022/09/08 05:00:43;;;;;;;0.90;0.90;;;;;;;20.38;74.78;95144.06;4932677;29;20312;-84
2022/09/08 05:03:09;;;;;;;2.00;0.80;;;;;;;20.28;75.26;95145.50;4933191;29;20210;-84
2022/09/08 05:05:39;;;;;;;1.08;0.95;;;;;;;20.27;75.34;95159.63;4932759;28;20837;-84
2022/09/08 05:08:06;;;;;;;0.98;0.88;;;;;;;20.15;75.60;95160.81;4933111;29;20241;-84
2022/09/08 05:10:34;;;;;;;2.00;1.00;;;;;;;20.15;75.78;95151.13;4933191;29;20582;-83
2022/09/08 05:13:02;;;;;;;0.85;0.85;;;;;;;20.16;76.00;95152.72;4934033;29;20229;-84
2022/09/08 05:15:29;;;;;;;2.80;1.30;;;;;;;20.19;75.74;95159.28;4933542;28;20233;-84
2022/09/08 05:17:56;;;;;;;0.88;0.80;;;;;;;20.15;75.65;95168.66;4934337;29;20669;-84
2022/09/08 05:20:22;;;;;;;1.20;0.80;;;;;;;20.14;75.82;95161.84;4933302;29;20233;-84
2022/09/08 05:22:50;;;;;;;0.90;0.80;;;;;;;20.16;75.46;95165.78;4934029;29;20229;-84
2022/09/08 05:25:16;;;;;;;2.05;0.93;;;;;;;20.24;75.43;95164.53;4934168;28;20256;-85
2022/09/08 05:27:43;;;;;;;1.38;0.90;;;;;;;20.26;75.04;95176.34;4934515;29;20200;-84
2022/09/08 05:30:12;;;;;;;1.52;0.80;;;;;;;20.24;74.79;95182.84;4933604;29;20717;-84
2022/09/08 05:32:38;;;;;;;1.58;0.77;;;;;;;20.26;74.49;95171.09;4934162;29;20245;-83
2022/09/08 05:35:07;;;;;;;1.23;0.90;;;;;;;20.28;74.08;95182.13;4933708;28;20266;-84
2022/09/08 05:37:34;;;;;;;1.23;0.93;;;;;;;20.22;73.99;95175.25;4934752;29;20232;-84
2022/09/08 05:40:00;;;;;;;1.70;0.75;;;;;;;20.16;73.26;95181.47;4934698;29;20229;-84
2022/09/08 05:42:26;;;;;;;0.70;0.70;;;;;;;19.95;73.21;95172.63;4933816;29;20209;-85
2022/09/08 05:44:53;;;;;;;1.55;0.63;;;;;;;19.99;72.67;95170.31;4933932;28;20237;-84
2022/09/08 05:47:21;;;;;;;0.90;0.90;;;;;;;19.85;71.84;95182.16;4934094;29;20205;-84
2022/09/08 05:49:47;;;;;;;0.60;0.60;;;;;;;19.87;71.30;95173.03;4932579;29;20229;-84
2022/09/08 05:52:14;;;;;;;2.15;1.20;;;;;;;19.90;71.30;95179.63;4932237;29;20222;-83
2022/09/08 05:54:40;;;;;;;2.92;0.88;;;;;;;19.92;70.53;95173.13;4933777;28;20209;-85
2022/09/08 05:57:07;;;;;;;0.82;0.82;;;;;;;19.99;69.90;95175.53;4933160;29;20268;-84
2022/09/08 05:59:34;;;;;;;1.25;0.60;;;;;;;20.02;69.41;95181.03;4934562;29;20225;-85
2022/09/08 06:02:00;;;;;;;3.90;0.80;;;;;;;20.11;68.92;95175.41;4936062;29;20217;-83
2022/09/08 06:04:28;;;;;;;0.65;0.60;;;;;;;20.21;68.35;95176.28;4935964;29;20209;-84
2022/09/08 06:06:54;;;;;;;0.60;0.60;;;;;;;20.15;67.66;95185.13;4936058;29;20691;-83
2022/09/08 06:09:21;;;;;;;0.60;0.60;;;;;;;20.16;67.67;95189.31;4936366;29;20210;-84
2022/09/08 06:11:47;;;;;;;0.52;0.52;;;;;;;20.07;67.36;95184.75;4935366;29;20216;-84
2022/09/08 06:14:14;;;;;;;0.60;0.60;;;;;;;20.10;67.21;95185.06;4936356;29;20781;-84
2022/09/08 06:16:40;;;;;;;1.08;0.50;;;;;;;20.08;67.53;95191.56;4935693;28;20237;-83
2022/09/08 06:19:06;;;;;;;1.25;0.60;;;;;;;20.10;67.71;95202.56;4935742;29;20225;-84
2022/09/08 06:21:34;;;;;;;0.70;0.70;;;;;;;20.10;67.36;95202.56;4936291;29;20673;-84
2022/09/08 06:24:03;;;;;;;0.82;0.60;;;;;;;20.07;67.19;95209.06;4936821;29;20202;-84
2022/09/08 06:26:59;;;;;;;1.42;0.65;;;;;;;19.97;67.31;95199.31;4935649;28;20260;-84
2022/09/08 06:29:54;;;;;;;4.13;3.72;;;;;;;19.99;67.62;95204.28;4935555;29;20284;-84
2022/09/08 06:32:27;;;;;;;1.38;0.90;;;;;;;20.10;67.92;95203.34;4921462;29;20296;-85
2022/09/08 06:34:59;;;;;;;1.45;0.63;;;;;;;20.06;67.60;95199.66;4935861;28;20320;-83
2022/09/08 06:37:36;;;;;;;1.33;0.88;;;;;;;20.11;67.03;95212.78;4935886;29;20220;-85
2022/09/08 06:40:10;;;;;;;0.80;0.73;;;;;;;20.16;67.23;95206.81;4935921;29;20229;-83
2022/09/08 06:42:47;;;;;;;1.10;0.70;;;;;;;20.27;66.97;95211.13;4936858;29;20233;-84
2022/09/08 06:45:23;;;;;;;2.45;0.80;;;;;;;20.23;66.77;95215.25;4936048;28;20289;-84
2022/09/08 06:48:02;;;;;;;0.50;0.50;;;;;;;20.16;67.51;95212.06;4935192;29;20681;-84
2022/09/08 06:50:33;;;;;;;1.33;0.70;;;;;;;20.17;67.53;95218.88;4937242;29;20232;-83
2022/09/08 06:53:06;;;;;;;0.70;0.70;;;;;;;20.13;68.28;95221.19;4936305;29;20210;-84
2022/09/08 06:55:36;;;;;;;2.75;0.77;;;;;;;20.02;68.28;95220.25;4936089;28;20253;-84
2022/09/08 06:58:15;;;;;;;0.50;0.50;;;;;;;20.04;68.73;95230.47;4936261;29;20285;-85
2022/09/08 07:00:47;;;;;;;0.80;0.80;;;;;;;19.87;69.63;95235.75;4935531;29;20221;-85
2022/09/08 07:03:34;;;;;;;0.65;0.65;;;;;;;19.88;70.48;95241.78;4936085;29;20233;-84
2022/09/08 07:06:06;;;;;;;0.88;0.88;;;;;;;19.87;71.28;95243.59;4935341;28;20241;-84
2022/09/08 07:09:02;;;;;;;0.70;0.70;;;;;;;19.83;72.05;95255.56;4935358;29;20210;-85
2022/09/08 07:11:41;;;;;;;0.88;0.73;;;;;;;19.77;72.82;95259.16;4934185;29;20252;-85
2022/09/08 07:14:27;;;;;;;0.80;0.80;;;;;;;19.81;73.03;95262.09;4935958;29;20205;-85
2022/09/08 07:17:00;;;;;;;0.70;0.70;;;;;;;19.78;73.94;95270.41;4934529;28;20233;-85
2022/09/08 07:19:34;;;;;;;1.40;0.70;;;;;;;19.67;74.42;95275.47;4934551;29;20228;-85
2022/09/08 07:22:06;;;;;;;0.70;0.70;;;;;;;19.75;74.32;95281.31;4934341;29;20209;-85
2022/09/08 07:24:38;;;;;;;0.70;0.70;;;;;;;19.73;75.34;95281.56;4934690;28;20206;-85
2022/09/08 07:27:08;;;;;;;2.05;0.80;;;;;;;19.81;76.07;95280.38;4934369;29;20292;-85
2022/09/08 07:29:41;;;;;;;1.05;0.80;;;;;;;19.67;77.42;95291.16;4934067;29;20222;-85
2022/09/08 07:32:14;;;;;;;0.80;0.80;;;;;;;19.56;77.72;95288.63;4934547;29;20218;-85
2022/09/08 07:34:49;;;;;;;0.90;0.80;;;;;;;19.55;79.76;95290.47;4934150;28;20205;-85
2022/09/08 07:37:21;;;;;;;3.33;2.83;;;;;;;19.53;79.52;95284.69;4934077;29;20685;-85
2022/09/08 07:39:54;;;;;;;4.32;3.92;;;;;;;19.56;80.05;95286.81;4934099;29;20221;-85
2022/09/08 07:42:21;;;;;;;1.85;1.05;;;;;;;19.56;79.32;95283.41;4933560;29;20581;-85
2022/09/08 07:44:57;;;;;;;0.88;0.80;;;;;;;19.52;80.73;95277.09;4935078;28;20205;-85
2022/09/08 07:47:39;;;;;;;0.93;0.80;;;;;;;19.52;80.08;95282.31;4937298;29;20590;-85
2022/09/08 07:50:17;;;;;;;2.42;1.00;;;;;;;19.51;80.34;95281.50;4936559;29;20770;-84
2022/09/08 07:52:54;;;;;;;0.93;0.80;;;;;;;19.42;80.36;95282.94;4936904;29;20705;-84
2022/09/08 07:55:28;;;;;;;1.10;0.90;;;;;;;19.40;81.36;95273.75;4936723;28;20241;-85
2022/09/08 07:58:06;;;;;;;0.82;0.77;;;;;;;19.28;81.51;95277.22;4937052;29;20208;-84
2022/09/08 08:00:43;;;;;;;0.80;0.80;;;;;;;19.32;80.88;95269.72;4936878;29;20221;-82
2022/09/08 08:03:26;;;;;;;0.93;0.82;;;;;;;19.37;81.47;95263.78;4937046;29;20233;-82
2022/09/08 08:06:01;;;;;;;0.93;0.70;;;;;;;19.40;81.00;95276.38;4937006;28;20728;-82
2022/09/08 08:08:36;;;;;;;1.20;0.85;;;;;;;19.42;80.42;95279.53;4937034;29;20239;-82
2022/09/08 08:11:11;;;;;;;0.75;0.75;;;;;;;19.41;81.46;95272.72;4936940;29;20232;-82
2022/09/08 08:13:53;;;;;;;1.48;0.80;;;;;;;19.41;80.20;95275.34;4936982;29;20201;-82
2022/09/08 08:16:30;;;;;;;1.17;0.70;;;;;;;19.48;80.73;95271.50;4937556;28;20236;-82
2022/09/08 08:19:05;;;;;;;1.17;0.80;;;;;;;19.55;80.07;95256.50;4937061;29;20220;-82
2022/09/08 08:21:37;;;;;;;0.98;0.80;;;;;;;19.60;79.38;95261.03;4936377;29;20224;-83
2022/09/08 08:24:27;;;;;;;3.50;0.80;;;;;;;19.67;79.99;95264.22;4936554;29;20209;-82
2022/09/08 08:27:01;;;;;;;4.07;3.72;;;;;;;19.72;80.07;95269.53;4936594;28;20233;-82
2022/09/08 08:30:01;;;;;;;6.50;5.93;;;;;;;19.73;82.20;95270.31;4936337;29;20197;-83
2022/09/08 08:32:32;;;;;;;1.60;1.10;;;;;;;19.78;81.00;95273.00;4935934;29;20209;-83
2022/09/08 08:35:02;;;;;;;1.27;0.80;;;;;;;19.84;81.77;95270.19;4936976;28;20233;-83
2022/09/08 08:37:33;;;;;;;3.53;1.20;;;;;;;19.89;80.42;95278.13;4936688;29;20213;-83
2022/09/08 08:40:00;;;;;;;1.45;0.70;;;;;;;19.83;79.42;95283.50;4936170;29;20601;-82
2022/09/08 08:42:46;;;;;;;2.10;0.90;;;;;;;19.89;79.79;95288.56;4936077;29;20233;-82
2022/09/08 08:45:26;;;;;;;0.73;0.73;;;;;;;19.95;79.70;95289.44;4936243;28;20233;-82
2022/09/08 08:48:13;;;;;;;2.00;0.80;;;;;;;19.89;78.54;95291.19;4936749;29;20212;-81
2022/09/08 08:51:08;;;;;;;2.05;0.90;;;;;;;19.78;78.52;95291.31;4935275;29;20232;-82
2022/09/08 08:53:56;;;;;;;2.55;0.90;;;;;;;19.67;78.82;95293.75;4936475;29;20212;-82
2022/09/08 08:56:29;;;;;;;2.05;0.85;;;;;;;19.73;78.83;95296.44;4936064;28;20237;-83
2022/09/08 08:59:36;;;;;;;0.80;0.80;;;;;;;19.83;78.67;95294.75;4936500;29;20229;-83
2022/09/08 09:02:16;;;;;;;2.05;0.80;;;;;;;19.88;77.74;95300.06;4921325;29;20208;-83
2022/09/08 09:05:07;;;;;;;0.77;0.75;;;;;;;19.97;76.91;95289.97;4935936;28;20205;-83
2022/09/08 09:07:58;;;;;;;1.08;0.85;;;;;;;20.03;76.50;95291.59;4936461;29;20244;-83
2022/09/08 09:10:42;;;;;;;1.23;0.75;;;;;;;20.07;76.25;95290.09;4936023;29;20662;-82
2022/09/08 09:13:24;;;;;;;0.77;0.77;;;;;;;20.20;75.36;95292.38;4936434;29;20209;-83
2022/09/08 09:16:19;;;;;;;1.08;0.70;;;;;;;20.08;75.52;95293.50;4935962;28;20645;-82
2022/09/08 09:19:07;;;;;;;0.80;0.80;;;;;;;20.16;74.18;95290.47;4935715;29;20241;-82
2022/09/08 09:21:50;;;;;;;1.30;0.90;;;;;;;20.31;74.93;95277.56;4935431;29;20225;-82
2022/09/08 09:24:32;;;;;;;0.65;0.65;;;;;;;20.34;73.59;95279.72;4936208;29;20655;-82
2022/09/08 09:27:00;;;;;;;1.63;1.15;;;;;;;20.42;72.61;95275.88;4936158;29;20232;-83
2022/09/08 09:29:27;;;;;;;0.60;0.60;;;;;;;20.88;72.34;95264.06;4936311;29;20257;-83
2022/09/08 09:32:28;;;;;;;0.70;0.70;;;;;;;21.18;69.38;95271.34;4936693;29;20308;-83
2022/09/08 09:35:14;;;;;;;0.70;0.70;;;;;;;21.19;67.73;95280.78;4937689;28;20684;-83
2022/09/08 09:38:16;;;;;;;0.55;0.55;;;;;;;21.29;67.95;95276.47;4940583;29;20246;-83
2022/09/08 09:41:08;;;;;;;0.70;0.60;;;;;;;21.51;67.16;95267.72;4926985;29;20276;-83
2022/09/08 09:43:54;;;;;;;0.88;0.60;;;;;;;21.69;66.41;95275.94;4940664;29;20221;-83
2022/09/08 09:46:43;;;;;;;1.05;0.70;;;;;;;21.99;64.75;95272.69;4940343;28;20233;-83
2022/09/08 09:49:25;;;;;;;8.57;7.78;;;;;;;22.01;64.63;95280.34;4940007;29;20269;-83
2022/09/08 09:52:07;;;;;;;0.80;0.80;;;;;;;21.90;65.18;95281.31;4939419;29;20925;-83
2022/09/08 09:54:53;;;;;;;0.82;0.60;;;;;;;21.69;65.06;95273.34;4939907;28;20216;-86
2022/09/08 09:57:51;;;;;;;0.50;0.50;;;;;;;21.48;64.65;95286.56;4940030;29;20265;-85
2022/09/08 10:00:19;;;;;;;0.93;0.70;;;;;;;21.33;66.45;95292.47;4938882;29;20229;-85
2022/09/08 10:03:25;;;;;;;0.98;0.60;;;;;;;21.23;66.79;95297.63;4939231;29;20674;-85
2022/09/08 10:06:23;;;;;;;0.60;0.60;;;;;;;21.11;63.72;95296.97;4938974;28;20742;-86
2022/09/08 10:09:09;;;;;;;0.93;0.70;;;;;;;21.30;64.85;95296.38;4939330;29;20243;-85
2022/09/08 10:12:02;;;;;;;0.63;0.63;;;;;;;21.39;64.72;95299.31;4938149;29;20240;-84
2022/09/08 10:14:59;;;;;;;0.70;0.70;;;;;;;21.59;64.39;95296.84;4938761;29;20225;-84
2022/09/08 10:18:02;;;;;;;1.55;0.63;;;;;;;21.64;64.01;95291.63;4938674;29;20221;-85
2022/09/08 10:21:02;;;;;;;0.50;0.50;;;;;;;21.65;62.86;95295.84;4895335;29;20240;-84
2022/09/08 10:24:05;;;;;;;0.60;0.60;;;;;;;21.60;62.47;95287.94;4931225;29;20205;-85
2022/09/08 10:27:05;;;;;;;0.75;0.70;;;;;;;21.45;61.73;95294.91;4937969;28;20233;-84
2022/09/08 10:30:15;;;;;;;3.38;2.72;;;;;;;21.44;62.70;95294.13;4939167;29;20619;-82
2022/09/08 10:33:19;;;;;;;2.03;1.10;;;;;;;21.48;62.07;95282.09;4928436;29;20240;-81
2022/09/08 10:35:46;;;;;;;0.52;0.52;;;;;;;21.52;62.88;95287.63;4938065;28;20236;-83
2022/09/08 10:38:37;;;;;;;1.27;1.08;;;;;;;21.57;62.49;95287.66;4938110;29;20202;-83
2022/09/08 10:41:20;;;;;;;1.23;0.70;;;;;;;21.53;62.46;95282.16;4938119;29;20634;-82
2022/09/08 10:44:09;;;;;;;2.15;0.70;;;;;;;21.46;62.32;95286.00;4938837;29;20605;-82
2022/09/08 10:46:59;;;;;;;0.82;0.70;;;;;;;21.40;60.87;95284.38;4936420;28;20830;-82
2022/09/08 10:49:50;;;;;;;1.40;0.70;;;;;;;21.23;61.47;95287.94;4937588;29;20288;-82
2022/09/08 10:52:30;;;;;;;0.70;0.70;;;;;;;21.13;59.78;95289.66;4937782;29;20232;-81
2022/09/08 10:55:27;;;;;;;0.60;0.60;;;;;;;20.97;59.63;95276.41;4937361;28;20221;-83
2022/09/08 10:58:26;;;;;;;0.60;0.60;;;;;;;20.94;60.34;95270.91;4938328;29;20296;-82
2022/09/08 11:01:05;;;;;;;1.05;0.60;;;;;;;20.83;60.23;95274.47;4937097;29;20236;-82
2022/09/08 11:03:56;;;;;;;0.77;0.75;;;;;;;20.93;60.57;95277.97;4938381;29;20224;-82
2022/09/08 11:06:36;;;;;;;0.60;0.60;;;;;;;20.91;61.37;95284.50;4937686;28;20237;-82
2022/09/08 11:09:22;;;;;;;0.75;0.65;;;;;;;20.88;59.18;95280.53;4938463;29;20209;-82
2022/09/08 11:12:09;;;;;;;0.85;0.52;;;;;;;20.87;59.22;95275.56;4937872;29;20226;-83
2022/09/08 11:15:00;;;;;;;1.75;0.68;;;;;;;20.97;59.27;95286.13;4937562;28;20681;-82
2022/09/08 11:17:28;;;;;;;6.35;5.75;;;;;;;21.09;60.25;95286.75;4938397;29;20296;-83
2022/09/08 11:20:05;;;;;;;4.18;2.38;;;;;;;21.13;59.27;95287.84;4937903;29;20240;-82
2022/09/08 11:22:50;;;;;;;0.95;0.85;;;;;;;21.16;58.27;95286.56;4939110;29;20692;-82
2022/09/08 11:25:32;;;;;;;0.70;0.70;;;;;;;21.16;58.24;95283.94;4936836;28;20237;-82
2022/09/08 11:28:10;;;;;;;0.68;0.68;;;;;;;21.06;58.10;95296.94;4937373;29;20264;-82
2022/09/08 11:30:48;;;;;;;1.45;0.80;;;;;;;21.10;58.76;95298.81;4936246;29;20792;-81
2022/09/08 11:33:25;;;;;;;1.17;0.80;;;;;;;21.23;58.83;95300.25;4937267;29;20212;-82
2022/09/08 11:36:10;;;;;;;1.38;0.88;;;;;;;21.25;59.14;95298.16;4936794;28;20744;-81
2022/09/08 11:39:04;;;;;;;0.85;0.77;;;;;;;21.27;59.02;95302.13;4937267;29;20268;-82
2022/09/08 11:41:56;;;;;;;1.10;0.80;;;;;;;21.35;59.48;95308.72;4935340;29;20224;-82
2022/09/08 11:44:42;;;;;;;0.80;0.80;;;;;;;21.29;58.94;95318.38;4937486;29;20261;-82
2022/09/08 11:47:41;;;;;;;0.70;0.70;;;;;;;21.27;59.02;95322.28;4939174;29;20217;-82
2022/09/08 11:50:38;;;;;;;0.80;0.70;;;;;;;21.24;59.07;95317.53;4938363;29;20262;-85
2022/09/08 11:53:42;;;;;;;1.08;0.80;;;;;;;21.27;60.21;95312.59;4928062;29;20229;-85
2022/09/08 11:56:40;;;;;;;0.60;0.60;;;;;;;21.39;59.30;95312.41;4927808;28;20257;-85
2022/09/08 11:59:24;;;;;;;0.90;0.60;;;;;;;21.43;58.79;95310.88;4935871;29;20205;-85
2022/09/08 12:02:02;;;;;;;1.40;0.82;;;;;;;21.50;59.05;95302.81;4935624;29;20213;-85
2022/09/08 12:04:56;;;;;;;0.73;0.73;;;;;;;21.58;58.38;95300.50;4936482;29;20201;-84
2022/09/08 12:07:37;;;;;;;1.30;0.80;;;;;;;21.60;58.66;95290.56;4936051;29;20666;-85
2022/09/08 12:10:22;;;;;;;1.50;0.80;;;;;;;21.54;57.80;95302.06;4935898;29;20320;-84
2022/09/08 12:12:59;;;;;;;1.58;0.82;;;;;;;21.60;58.46;95292.38;4936004;29;20784;-84
2022/09/08 12:15:40;;;;;;;1.45;0.70;;;;;;;21.66;58.04;95299.25;4936181;28;20240;-85
2022/09/08 12:18:22;;;;;;;0.80;0.70;;;;;;;21.81;57.64;95304.56;4935891;29;20657;-84